sensor_id;sensor_type;location;lat;lon;timestamp;P1;durP1;ratioP1;P2;durP2;ratioP2
68583;SDS011;55557;49.220;11.150;2023-12-28T00:02:15;3.57;;;3.10;;
68583;SDS011;55557;49.220;11.150;2023-12-28T00:04:41;3.37;;;2.50;;
68583;SDS011;55557;49.220;11.150;2023-12-28T00:07:07;6.97;;;3.00;;
68583;SDS011;55557;49.220;11.150;2023-12-28T00:09:33;3.63;;;2.60;;
68583;SDS011;55557;49.220;11.150;2023-12-28T00:11:59;6.57;;;3.23;;
68583;SDS011;55557;49.220;11.150;2023-12-28T00:14:25;3.10;;;2.63;;
68583;SDS011;55557;49.220;11.150;2023-12-28T00:16:51;6.07;;;2.77;;
68583;SDS011;55557;49.220;11.150;2023-12-28T00:19:17;3.97;;;2.83;;
68583;SDS011;55557;49.220;11.150;2023-12-28T00:21:44;2.93;;;2.37;;
68583;SDS011;55557;49.220;11.150;2023-12-28T00:24:10;3.37;;;2.53;;
68583;SDS011;55557;49.220;11.150;2023-12-28T00:26:36;4.20;;;2.43;;
68583;SDS011;55557;49.220;11.150;2023-12-28T00:29:02;3.10;;;2.27;;
68583;SDS011;55557;49.220;11.150;2023-12-28T00:31:28;3.93;;;2.33;;
68583;SDS011;55557;49.220;11.150;2023-12-28T00:33:54;3.50;;;2.23;;
68583;SDS011;55557;49.220;11.150;2023-12-28T00:36:20;4.67;;;2.40;;
68583;SDS011;55557;49.220;11.150;2023-12-28T00:38:46;2.80;;;2.27;;
68583;SDS011;55557;49.220;11.150;2023-12-28T00:41:12;3.70;;;2.30;;
68583;SDS011;55557;49.220;11.150;2023-12-28T00:43:37;3.83;;;2.20;;
68583;SDS011;55557;49.220;11.150;2023-12-28T00:46:03;3.00;;;2.43;;
68583;SDS011;55557;49.220;11.150;2023-12-28T00:48:29;3.93;;;2.67;;
68583;SDS011;55557;49.220;11.150;2023-12-28T00:50:55;4.30;;;2.10;;
68583;SDS011;55557;49.220;11.150;2023-12-28T00:53:23;2.10;;;1.83;;
68583;SDS011;55557;49.220;11.150;2023-12-28T00:55:49;4.87;;;2.00;;
68583;SDS011;55557;49.220;11.150;2023-12-28T00:58:15;2.87;;;2.37;;
68583;SDS011;55557;49.220;11.150;2023-12-28T01:00:41;3.70;;;2.67;;
68583;SDS011;55557;49.220;11.150;2023-12-28T01:03:07;4.23;;;3.33;;
68583;SDS011;55557;49.220;11.150;2023-12-28T01:05:33;2.93;;;2.20;;
68583;SDS011;55557;49.220;11.150;2023-12-28T01:07:59;4.73;;;2.70;;
68583;SDS011;55557;49.220;11.150;2023-12-28T01:10:25;3.77;;;2.47;;
68583;SDS011;55557;49.220;11.150;2023-12-28T01:12:51;3.73;;;2.70;;
68583;SDS011;55557;49.220;11.150;2023-12-28T01:15:17;3.27;;;2.77;;
68583;SDS011;55557;49.220;11.150;2023-12-28T01:17:45;5.73;;;2.83;;
68583;SDS011;55557;49.220;11.150;2023-12-28T01:20:11;2.40;;;2.20;;
68583;SDS011;55557;49.220;11.150;2023-12-28T01:22:37;3.77;;;2.63;;
68583;SDS011;55557;49.220;11.150;2023-12-28T01:25:03;3.53;;;2.57;;
68583;SDS011;55557;49.220;11.150;2023-12-28T01:27:29;6.50;;;3.10;;
68583;SDS011;55557;49.220;11.150;2023-12-28T01:29:55;4.03;;;3.00;;
68583;SDS011;55557;49.220;11.150;2023-12-28T01:32:21;4.67;;;3.10;;
68583;SDS011;55557;49.220;11.150;2023-12-28T01:34:47;3.70;;;2.70;;
68583;SDS011;55557;49.220;11.150;2023-12-28T01:37:13;5.13;;;2.80;;
68583;SDS011;55557;49.220;11.150;2023-12-28T01:39:39;4.67;;;3.10;;
68583;SDS011;55557;49.220;11.150;2023-12-28T01:42:05;3.17;;;2.57;;
68583;SDS011;55557;49.220;11.150;2023-12-28T01:44:31;4.73;;;3.07;;
68583;SDS011;55557;49.220;11.150;2023-12-28T01:46:57;5.13;;;3.07;;
68583;SDS011;55557;49.220;11.150;2023-12-28T01:49:23;5.13;;;3.27;;
68583;SDS011;55557;49.220;11.150;2023-12-28T01:51:49;5.00;;;3.47;;
68583;SDS011;55557;49.220;11.150;2023-12-28T01:54:16;5.33;;;3.50;;
68583;SDS011;55557;49.220;11.150;2023-12-28T01:56:42;4.97;;;3.40;;
68583;SDS011;55557;49.220;11.150;2023-12-28T01:59:09;4.33;;;3.00;;
68583;SDS011;55557;49.220;11.150;2023-12-28T02:01:35;5.53;;;3.33;;
68583;SDS011;55557;49.220;11.150;2023-12-28T02:04:01;6.60;;;3.30;;
68583;SDS011;55557;49.220;11.150;2023-12-28T02:06:27;4.00;;;3.03;;
68583;SDS011;55557;49.220;11.150;2023-12-28T02:08:53;4.17;;;2.77;;
68583;SDS011;55557;49.220;11.150;2023-12-28T02:11:19;4.57;;;3.27;;
68583;SDS011;55557;49.220;11.150;2023-12-28T02:13:45;3.73;;;2.57;;
68583;SDS011;55557;49.220;11.150;2023-12-28T02:16:25;4.50;;;2.53;;
68583;SDS011;55557;49.220;11.150;2023-12-28T02:18:51;3.13;;;2.40;;
68583;SDS011;55557;49.220;11.150;2023-12-28T02:21:19;4.23;;;2.77;;
68583;SDS011;55557;49.220;11.150;2023-12-28T02:23:49;3.40;;;2.00;;
68583;SDS011;55557;49.220;11.150;2023-12-28T02:26:16;4.37;;;2.57;;
68583;SDS011;55557;49.220;11.150;2023-12-28T02:28:42;3.67;;;2.57;;
68583;SDS011;55557;49.220;11.150;2023-12-28T02:31:08;4.77;;;2.73;;
68583;SDS011;55557;49.220;11.150;2023-12-28T02:33:38;3.27;;;2.33;;
68583;SDS011;55557;49.220;11.150;2023-12-28T02:36:09;2.53;;;2.10;;
68583;SDS011;55557;49.220;11.150;2023-12-28T02:38:36;11.23;;;2.47;;
68583;SDS011;55557;49.220;11.150;2023-12-28T02:41:03;6.53;;;2.33;;
68583;SDS011;55557;49.220;11.150;2023-12-28T02:43:29;3.23;;;2.53;;
68583;SDS011;55557;49.220;11.150;2023-12-28T02:45:56;5.83;;;2.97;;
68583;SDS011;55557;49.220;11.150;2023-12-28T02:48:22;5.10;;;2.77;;
68583;SDS011;55557;49.220;11.150;2023-12-28T02:50:48;4.50;;;2.50;;
68583;SDS011;55557;49.220;11.150;2023-12-28T02:53:14;3.80;;;2.27;;
68583;SDS011;55557;49.220;11.150;2023-12-28T02:55:40;5.57;;;2.50;;
68583;SDS011;55557;49.220;11.150;2023-12-28T02:58:06;2.30;;;2.10;;
68583;SDS011;55557;49.220;11.150;2023-12-28T03:00:32;4.20;;;2.23;;
68583;SDS011;55557;49.220;11.150;2023-12-28T03:02:58;2.70;;;2.27;;
68583;SDS011;55557;49.220;11.150;2023-12-28T03:05:24;2.90;;;2.40;;
68583;SDS011;55557;49.220;11.150;2023-12-28T03:07:50;3.53;;;2.30;;
68583;SDS011;55557;49.220;11.150;2023-12-28T03:10:16;2.93;;;2.13;;
68583;SDS011;55557;49.220;11.150;2023-12-28T03:12:42;8.73;;;2.93;;
68583;SDS011;55557;49.220;11.150;2023-12-28T03:15:08;4.10;;;2.20;;
68583;SDS011;55557;49.220;11.150;2023-12-28T03:17:34;2.57;;;2.10;;
68583;SDS011;55557;49.220;11.150;2023-12-28T03:20:01;3.97;;;2.53;;
68583;SDS011;55557;49.220;11.150;2023-12-28T03:22:27;3.43;;;2.60;;
68583;SDS011;55557;49.220;11.150;2023-12-28T03:24:53;3.83;;;2.40;;
68583;SDS011;55557;49.220;11.150;2023-12-28T03:27:19;3.53;;;2.60;;
68583;SDS011;55557;49.220;11.150;2023-12-28T03:29:45;2.80;;;2.43;;
68583;SDS011;55557;49.220;11.150;2023-12-28T03:32:11;5.47;;;3.20;;
68583;SDS011;55557;49.220;11.150;2023-12-28T03:34:37;5.00;;;2.90;;
68583;SDS011;55557;49.220;11.150;2023-12-28T03:37:03;11.20;;;3.53;;
68583;SDS011;55557;49.220;11.150;2023-12-28T03:39:29;3.67;;;3.07;;
68583;SDS011;55557;49.220;11.150;2023-12-28T03:41:55;4.93;;;3.17;;
68583;SDS011;55557;49.220;11.150;2023-12-28T03:44:22;3.23;;;2.17;;
68583;SDS011;55557;49.220;11.150;2023-12-28T03:46:48;6.17;;;3.03;;
68583;SDS011;55557;49.220;11.150;2023-12-28T03:49:16;5.90;;;2.57;;
68583;SDS011;55557;49.220;11.150;2023-12-28T03:51:42;5.57;;;2.60;;
68583;SDS011;55557;49.220;11.150;2023-12-28T03:54:08;2.83;;;2.33;;
68583;SDS011;55557;49.220;11.150;2023-12-28T03:56:34;3.97;;;2.50;;
68583;SDS011;55557;49.220;11.150;2023-12-28T03:59:00;4.10;;;2.50;;
68583;SDS011;55557;49.220;11.150;2023-12-28T04:01:26;3.63;;;2.30;;
68583;SDS011;55557;49.220;11.150;2023-12-28T04:03:52;3.37;;;2.33;;
68583;SDS011;55557;49.220;11.150;2023-12-28T04:06:18;3.93;;;3.00;;
68583;SDS011;55557;49.220;11.150;2023-12-28T04:08:44;3.87;;;2.13;;
68583;SDS011;55557;49.220;11.150;2023-12-28T04:11:10;2.70;;;2.10;;
68583;SDS011;55557;49.220;11.150;2023-12-28T04:13:36;3.20;;;2.10;;
68583;SDS011;55557;49.220;11.150;2023-12-28T04:16:02;3.80;;;2.70;;
68583;SDS011;55557;49.220;11.150;2023-12-28T04:18:28;7.30;;;1.60;;
68583;SDS011;55557;49.220;11.150;2023-12-28T04:20:54;3.37;;;2.20;;
68583;SDS011;55557;49.220;11.150;2023-12-28T04:23:20;4.03;;;2.53;;
68583;SDS011;55557;49.220;11.150;2023-12-28T04:25:46;3.23;;;2.73;;
68583;SDS011;55557;49.220;11.150;2023-12-28T04:28:12;3.13;;;2.30;;
68583;SDS011;55557;49.220;11.150;2023-12-28T04:30:38;3.00;;;2.33;;
68583;SDS011;55557;49.220;11.150;2023-12-28T04:33:04;6.70;;;3.10;;
68583;SDS011;55557;49.220;11.150;2023-12-28T04:35:30;3.17;;;2.83;;
68583;SDS011;55557;49.220;11.150;2023-12-28T04:37:56;3.90;;;2.40;;
68583;SDS011;55557;49.220;11.150;2023-12-28T04:40:22;6.23;;;2.60;;
68583;SDS011;55557;49.220;11.150;2023-12-28T04:42:48;3.23;;;2.47;;
68583;SDS011;55557;49.220;11.150;2023-12-28T04:45:14;7.13;;;3.10;;
68583;SDS011;55557;49.220;11.150;2023-12-28T04:47:40;2.53;;;2.33;;
68583;SDS011;55557;49.220;11.150;2023-12-28T04:50:06;3.73;;;2.67;;
68583;SDS011;55557;49.220;11.150;2023-12-28T04:52:33;3.00;;;2.20;;
68583;SDS011;55557;49.220;11.150;2023-12-28T04:54:59;5.03;;;2.80;;
68583;SDS011;55557;49.220;11.150;2023-12-28T04:57:25;3.07;;;2.37;;
68583;SDS011;55557;49.220;11.150;2023-12-28T04:59:52;3.37;;;2.30;;
68583;SDS011;55557;49.220;11.150;2023-12-28T05:02:18;4.50;;;2.33;;
68583;SDS011;55557;49.220;11.150;2023-12-28T05:04:44;3.03;;;2.27;;
68583;SDS011;55557;49.220;11.150;2023-12-28T05:07:10;3.40;;;2.50;;
68583;SDS011;55557;49.220;11.150;2023-12-28T05:09:36;3.13;;;2.70;;
68583;SDS011;55557;49.220;11.150;2023-12-28T05:12:02;4.43;;;2.47;;
68583;SDS011;55557;49.220;11.150;2023-12-28T05:14:28;3.53;;;2.40;;
68583;SDS011;55557;49.220;11.150;2023-12-28T05:16:54;3.37;;;2.23;;
68583;SDS011;55557;49.220;11.150;2023-12-28T05:19:20;5.40;;;2.50;;
68583;SDS011;55557;49.220;11.150;2023-12-28T05:21:46;4.53;;;2.60;;
68583;SDS011;55557;49.220;11.150;2023-12-28T05:24:12;3.73;;;2.20;;
68583;SDS011;55557;49.220;11.150;2023-12-28T05:26:38;3.63;;;2.03;;
68583;SDS011;55557;49.220;11.150;2023-12-28T05:29:04;9.20;;;2.20;;
68583;SDS011;55557;49.220;11.150;2023-12-28T05:31:30;6.07;;;2.70;;
68583;SDS011;55557;49.220;11.150;2023-12-28T05:33:56;2.13;;;1.93;;
68583;SDS011;55557;49.220;11.150;2023-12-28T05:36:23;3.93;;;2.70;;
68583;SDS011;55557;49.220;11.150;2023-12-28T05:38:49;5.00;;;2.60;;
68583;SDS011;55557;49.220;11.150;2023-12-28T05:41:15;2.90;;;2.40;;
68583;SDS011;55557;49.220;11.150;2023-12-28T05:43:41;2.13;;;2.00;;
68583;SDS011;55557;49.220;11.150;2023-12-28T05:46:07;6.30;;;3.20;;
68583;SDS011;55557;49.220;11.150;2023-12-28T05:48:33;3.07;;;2.77;;
68583;SDS011;55557;49.220;11.150;2023-12-28T05:51:00;5.80;;;3.20;;
68583;SDS011;55557;49.220;11.150;2023-12-28T05:53:26;4.80;;;3.00;;
68583;SDS011;55557;49.220;11.150;2023-12-28T05:55:52;3.73;;;3.13;;
68583;SDS011;55557;49.220;11.150;2023-12-28T05:58:18;4.73;;;3.47;;
68583;SDS011;55557;49.220;11.150;2023-12-28T06:00:44;5.07;;;3.20;;
68583;SDS011;55557;49.220;11.150;2023-12-28T06:03:13;4.73;;;3.27;;
68583;SDS011;55557;49.220;11.150;2023-12-28T06:05:39;6.23;;;3.70;;
68583;SDS011;55557;49.220;11.150;2023-12-28T06:08:05;4.97;;;3.47;;
68583;SDS011;55557;49.220;11.150;2023-12-28T06:10:31;4.83;;;3.17;;
68583;SDS011;55557;49.220;11.150;2023-12-28T06:12:57;3.43;;;2.90;;
68583;SDS011;55557;49.220;11.150;2023-12-28T06:15:23;4.97;;;3.40;;
68583;SDS011;55557;49.220;11.150;2023-12-28T06:17:49;5.60;;;3.77;;
68583;SDS011;55557;49.220;11.150;2023-12-28T06:20:15;4.93;;;3.23;;
68583;SDS011;55557;49.220;11.150;2023-12-28T06:22:41;5.00;;;4.00;;
68583;SDS011;55557;49.220;11.150;2023-12-28T06:25:07;4.87;;;3.70;;
68583;SDS011;55557;49.220;11.150;2023-12-28T06:27:33;8.70;;;4.57;;
68583;SDS011;55557;49.220;11.150;2023-12-28T06:29:59;9.87;;;5.47;;
68583;SDS011;55557;49.220;11.150;2023-12-28T06:32:25;7.50;;;4.60;;
68583;SDS011;55557;49.220;11.150;2023-12-28T06:34:51;6.97;;;4.60;;
68583;SDS011;55557;49.220;11.150;2023-12-28T06:37:17;4.67;;;3.90;;
68583;SDS011;55557;49.220;11.150;2023-12-28T06:39:43;9.57;;;4.93;;
68583;SDS011;55557;49.220;11.150;2023-12-28T06:42:09;9.57;;;5.33;;
68583;SDS011;55557;49.220;11.150;2023-12-28T06:44:35;7.37;;;4.80;;
68583;SDS011;55557;49.220;11.150;2023-12-28T06:47:01;6.90;;;4.97;;
68583;SDS011;55557;49.220;11.150;2023-12-28T06:49:26;5.93;;;4.57;;
68583;SDS011;55557;49.220;11.150;2023-12-28T06:51:52;5.33;;;4.23;;
68583;SDS011;55557;49.220;11.150;2023-12-28T06:54:18;6.23;;;4.50;;
68583;SDS011;55557;49.220;11.150;2023-12-28T06:56:44;4.00;;;3.60;;
68583;SDS011;55557;49.220;11.150;2023-12-28T06:59:10;5.57;;;4.57;;
68583;SDS011;55557;49.220;11.150;2023-12-28T07:01:40;4.80;;;3.83;;
68583;SDS011;55557;49.220;11.150;2023-12-28T07:04:06;5.27;;;4.00;;
68583;SDS011;55557;49.220;11.150;2023-12-28T07:06:32;4.83;;;3.73;;
68583;SDS011;55557;49.220;11.150;2023-12-28T07:08:58;5.50;;;4.07;;
68583;SDS011;55557;49.220;11.150;2023-12-28T07:11:24;4.60;;;3.60;;
68583;SDS011;55557;49.220;11.150;2023-12-28T07:13:51;6.57;;;3.47;;
68583;SDS011;55557;49.220;11.150;2023-12-28T07:16:18;4.53;;;3.67;;
68583;SDS011;55557;49.220;11.150;2023-12-28T07:18:44;4.13;;;3.07;;
68583;SDS011;55557;49.220;11.150;2023-12-28T07:21:10;4.47;;;2.77;;
68583;SDS011;55557;49.220;11.150;2023-12-28T07:23:36;2.97;;;2.67;;
68583;SDS011;55557;49.220;11.150;2023-12-28T07:26:02;4.17;;;2.73;;
68583;SDS011;55557;49.220;11.150;2023-12-28T07:28:28;5.27;;;2.80;;
68583;SDS011;55557;49.220;11.150;2023-12-28T07:30:54;6.60;;;3.10;;
68583;SDS011;55557;49.220;11.150;2023-12-28T07:33:20;5.20;;;2.93;;
68583;SDS011;55557;49.220;11.150;2023-12-28T07:35:46;6.03;;;2.90;;
68583;SDS011;55557;49.220;11.150;2023-12-28T07:38:12;4.13;;;2.40;;
68583;SDS011;55557;49.220;11.150;2023-12-28T07:40:38;2.63;;;2.40;;
68583;SDS011;55557;49.220;11.150;2023-12-28T07:43:04;2.90;;;2.30;;
68583;SDS011;55557;49.220;11.150;2023-12-28T07:45:30;2.90;;;2.30;;
68583;SDS011;55557;49.220;11.150;2023-12-28T07:47:57;6.10;;;2.43;;
68583;SDS011;55557;49.220;11.150;2023-12-28T07:50:23;4.50;;;3.10;;
68583;SDS011;55557;49.220;11.150;2023-12-28T07:52:48;4.23;;;3.30;;
68583;SDS011;55557;49.220;11.150;2023-12-28T07:55:15;6.53;;;4.70;;
68583;SDS011;55557;49.220;11.150;2023-12-28T07:57:41;5.63;;;4.07;;
68583;SDS011;55557;49.220;11.150;2023-12-28T08:00:07;6.97;;;4.10;;
68583;SDS011;55557;49.220;11.150;2023-12-28T08:02:33;7.87;;;5.03;;
68583;SDS011;55557;49.220;11.150;2023-12-28T08:04:59;6.77;;;4.77;;
68583;SDS011;55557;49.220;11.150;2023-12-28T08:07:25;8.63;;;5.60;;
68583;SDS011;55557;49.220;11.150;2023-12-28T08:09:51;9.90;;;5.67;;
68583;SDS011;55557;49.220;11.150;2023-12-28T08:12:17;7.30;;;5.23;;
68583;SDS011;55557;49.220;11.150;2023-12-28T08:14:43;13.23;;;5.43;;
68583;SDS011;55557;49.220;11.150;2023-12-28T08:17:09;13.33;;;6.47;;
68583;SDS011;55557;49.220;11.150;2023-12-28T08:19:35;10.03;;;5.90;;
68583;SDS011;55557;49.220;11.150;2023-12-28T08:22:01;9.73;;;5.60;;
68583;SDS011;55557;49.220;11.150;2023-12-28T08:24:28;7.93;;;4.67;;
68583;SDS011;55557;49.220;11.150;2023-12-28T08:26:54;7.90;;;4.90;;
68583;SDS011;55557;49.220;11.150;2023-12-28T08:29:24;7.33;;;4.67;;
68583;SDS011;55557;49.220;11.150;2023-12-28T08:31:50;10.83;;;4.60;;
68583;SDS011;55557;49.220;11.150;2023-12-28T08:34:16;6.57;;;4.47;;
68583;SDS011;55557;49.220;11.150;2023-12-28T08:36:42;7.07;;;4.37;;
68583;SDS011;55557;49.220;11.150;2023-12-28T08:39:08;4.23;;;3.53;;
68583;SDS011;55557;49.220;11.150;2023-12-28T08:41:34;4.30;;;3.10;;
68583;SDS011;55557;49.220;11.150;2023-12-28T08:44:00;3.97;;;2.83;;
68583;SDS011;55557;49.220;11.150;2023-12-28T08:46:26;3.80;;;2.33;;
68583;SDS011;55557;49.220;11.150;2023-12-28T08:48:52;6.83;;;2.73;;
68583;SDS011;55557;49.220;11.150;2023-12-28T08:51:18;2.73;;;2.33;;
68583;SDS011;55557;49.220;11.150;2023-12-28T08:53:45;3.23;;;1.97;;
68583;SDS011;55557;49.220;11.150;2023-12-28T08:56:19;4.37;;;2.10;;
68583;SDS011;55557;49.220;11.150;2023-12-28T08:58:46;7.33;;;2.50;;
68583;SDS011;55557;49.220;11.150;2023-12-28T09:01:21;4.40;;;2.57;;
68583;SDS011;55557;49.220;11.150;2023-12-28T09:03:49;5.30;;;2.87;;
68583;SDS011;55557;49.220;11.150;2023-12-28T09:06:15;9.80;;;5.30;;
68583;SDS011;55557;49.220;11.150;2023-12-28T09:08:42;8.37;;;4.67;;
68583;SDS011;55557;49.220;11.150;2023-12-28T09:11:11;7.87;;;4.50;;
68583;SDS011;55557;49.220;11.150;2023-12-28T09:13:37;6.30;;;3.77;;
68583;SDS011;55557;49.220;11.150;2023-12-28T09:16:03;7.10;;;4.43;;
68583;SDS011;55557;49.220;11.150;2023-12-28T09:18:30;7.03;;;4.03;;
68583;SDS011;55557;49.220;11.150;2023-12-28T09:20:56;5.10;;;3.97;;
68583;SDS011;55557;49.220;11.150;2023-12-28T09:23:21;3.70;;;3.10;;
68583;SDS011;55557;49.220;11.150;2023-12-28T09:25:47;5.03;;;3.87;;
68583;SDS011;55557;49.220;11.150;2023-12-28T09:28:14;5.67;;;3.33;;
68583;SDS011;55557;49.220;11.150;2023-12-28T09:30:40;5.73;;;3.37;;
68583;SDS011;55557;49.220;11.150;2023-12-28T09:33:06;7.53;;;3.97;;
68583;SDS011;55557;49.220;11.150;2023-12-28T09:35:32;7.80;;;5.30;;
68583;SDS011;55557;49.220;11.150;2023-12-28T09:37:58;17.43;;;7.77;;
68583;SDS011;55557;49.220;11.150;2023-12-28T09:40:24;18.27;;;9.27;;
68583;SDS011;55557;49.220;11.150;2023-12-28T09:42:57;22.80;;;10.40;;
68583;SDS011;55557;49.220;11.150;2023-12-28T09:45:27;19.73;;;8.47;;
68583;SDS011;55557;49.220;11.150;2023-12-28T09:47:52;13.57;;;6.00;;
68583;SDS011;55557;49.220;11.150;2023-12-28T09:50:18;11.00;;;6.47;;
68583;SDS011;55557;49.220;11.150;2023-12-28T09:52:45;17.60;;;10.20;;
68583;SDS011;55557;49.220;11.150;2023-12-28T09:55:11;21.37;;;11.77;;
68583;SDS011;55557;49.220;11.150;2023-12-28T09:57:37;15.67;;;9.13;;
68583;SDS011;55557;49.220;11.150;2023-12-28T10:00:03;19.17;;;11.93;;
68583;SDS011;55557;49.220;11.150;2023-12-28T10:02:31;12.10;;;6.80;;
68583;SDS011;55557;49.220;11.150;2023-12-28T10:04:58;7.67;;;6.33;;
68583;SDS011;55557;49.220;11.150;2023-12-28T10:07:24;7.27;;;4.57;;
68583;SDS011;55557;49.220;11.150;2023-12-28T10:09:51;7.40;;;4.53;;
68583;SDS011;55557;49.220;11.150;2023-12-28T10:12:17;6.13;;;3.90;;
68583;SDS011;55557;49.220;11.150;2023-12-28T10:14:43;5.50;;;3.80;;
68583;SDS011;55557;49.220;11.150;2023-12-28T10:17:09;5.37;;;3.20;;
68583;SDS011;55557;49.220;11.150;2023-12-28T10:19:36;2.70;;;2.00;;
68583;SDS011;55557;49.220;11.150;2023-12-28T10:22:02;4.67;;;2.47;;
68583;SDS011;55557;49.220;11.150;2023-12-28T10:24:28;3.10;;;2.60;;
68583;SDS011;55557;49.220;11.150;2023-12-28T10:26:54;4.57;;;2.20;;
68583;SDS011;55557;49.220;11.150;2023-12-28T10:29:21;4.13;;;2.77;;
68583;SDS011;55557;49.220;11.150;2023-12-28T10:31:50;6.20;;;2.93;;
68583;SDS011;55557;49.220;11.150;2023-12-28T10:34:16;5.03;;;2.40;;
68583;SDS011;55557;49.220;11.150;2023-12-28T10:36:42;3.40;;;2.70;;
68583;SDS011;55557;49.220;11.150;2023-12-28T10:39:11;3.90;;;3.10;;
68583;SDS011;55557;49.220;11.150;2023-12-28T10:41:38;4.43;;;2.80;;
68583;SDS011;55557;49.220;11.150;2023-12-28T10:44:06;4.73;;;3.53;;
68583;SDS011;55557;49.220;11.150;2023-12-28T10:46:34;5.00;;;3.10;;
68583;SDS011;55557;49.220;11.150;2023-12-28T10:49:11;7.10;;;3.80;;
68583;SDS011;55557;49.220;11.150;2023-12-28T10:51:38;9.40;;;3.77;;
68583;SDS011;55557;49.220;11.150;2023-12-28T10:56:41;7.47;;;4.33;;
68583;SDS011;55557;49.220;11.150;2023-12-28T10:59:16;7.00;;;4.57;;
68583;SDS011;55557;49.220;11.150;2023-12-28T11:01:43;9.50;;;4.13;;
68583;SDS011;55557;49.220;11.150;2023-12-28T11:06:41;4.53;;;3.37;;
68583;SDS011;55557;49.220;11.150;2023-12-28T11:09:08;3.60;;;2.60;;
68583;SDS011;55557;49.220;11.150;2023-12-28T11:11:36;3.40;;;2.70;;
68583;SDS011;55557;49.220;11.150;2023-12-28T11:14:02;3.43;;;2.33;;
68583;SDS011;55557;49.220;11.150;2023-12-28T11:16:29;6.90;;;2.90;;
68583;SDS011;55557;49.220;11.150;2023-12-28T11:18:56;6.10;;;3.40;;
68583;SDS011;55557;49.220;11.150;2023-12-28T11:21:22;5.43;;;2.83;;
68583;SDS011;55557;49.220;11.150;2023-12-28T11:23:48;5.77;;;2.37;;
68583;SDS011;55557;49.220;11.150;2023-12-28T11:26:21;3.07;;;2.50;;
68583;SDS011;55557;49.220;11.150;2023-12-28T11:28:47;4.27;;;2.40;;
68583;SDS011;55557;49.220;11.150;2023-12-28T11:31:15;2.77;;;2.13;;
68583;SDS011;55557;49.220;11.150;2023-12-28T11:33:47;13.27;;;4.60;;
68583;SDS011;55557;49.220;11.150;2023-12-28T11:36:21;30.90;;;17.23;;
68583;SDS011;55557;49.220;11.150;2023-12-28T11:38:48;23.37;;;13.53;;
68583;SDS011;55557;49.220;11.150;2023-12-28T11:41:16;22.13;;;10.93;;
68583;SDS011;55557;49.220;11.150;2023-12-28T11:43:43;18.60;;;11.80;;
68583;SDS011;55557;49.220;11.150;2023-12-28T11:49:25;15.57;;;7.60;;
68583;SDS011;55557;49.220;11.150;2023-12-28T11:51:55;14.10;;;6.07;;
68583;SDS011;55557;49.220;11.150;2023-12-28T11:54:22;14.23;;;6.63;;
68583;SDS011;55557;49.220;11.150;2023-12-28T11:56:48;11.03;;;6.67;;
68583;SDS011;55557;49.220;11.150;2023-12-28T11:59:14;7.20;;;4.80;;
68583;SDS011;55557;49.220;11.150;2023-12-28T12:01:39;8.67;;;5.30;;
68583;SDS011;55557;49.220;11.150;2023-12-28T12:04:06;9.13;;;4.60;;
68583;SDS011;55557;49.220;11.150;2023-12-28T12:06:32;6.57;;;3.60;;
68583;SDS011;55557;49.220;11.150;2023-12-28T12:08:58;4.43;;;3.57;;
68583;SDS011;55557;49.220;11.150;2023-12-28T12:11:24;8.20;;;4.20;;
68583;SDS011;55557;49.220;11.150;2023-12-28T12:13:51;7.23;;;5.20;;
68583;SDS011;55557;49.220;11.150;2023-12-28T12:16:18;8.00;;;4.60;;
68583;SDS011;55557;49.220;11.150;2023-12-28T12:18:44;6.60;;;4.27;;
68583;SDS011;55557;49.220;11.150;2023-12-28T12:21:10;5.97;;;3.97;;
68583;SDS011;55557;49.220;11.150;2023-12-28T12:23:36;7.37;;;4.23;;
68583;SDS011;55557;49.220;11.150;2023-12-28T12:26:06;7.70;;;4.33;;
68583;SDS011;55557;49.220;11.150;2023-12-28T12:28:32;10.17;;;5.60;;
68583;SDS011;55557;49.220;11.150;2023-12-28T12:30:58;8.00;;;4.83;;
68583;SDS011;55557;49.220;11.150;2023-12-28T12:33:26;5.03;;;3.93;;
68583;SDS011;55557;49.220;11.150;2023-12-28T12:35:52;6.37;;;4.00;;
68583;SDS011;55557;49.220;11.150;2023-12-28T12:38:19;5.17;;;3.47;;
68583;SDS011;55557;49.220;11.150;2023-12-28T12:40:45;4.30;;;3.17;;
68583;SDS011;55557;49.220;11.150;2023-12-28T12:43:11;11.77;;;6.97;;
68583;SDS011;55557;49.220;11.150;2023-12-28T12:45:37;15.73;;;10.63;;
68583;SDS011;55557;49.220;11.150;2023-12-28T12:48:03;18.83;;;12.37;;
68583;SDS011;55557;49.220;11.150;2023-12-28T12:50:31;10.43;;;6.57;;
68583;SDS011;55557;49.220;11.150;2023-12-28T12:53:00;11.97;;;6.80;;
68583;SDS011;55557;49.220;11.150;2023-12-28T12:55:27;10.80;;;6.17;;
68583;SDS011;55557;49.220;11.150;2023-12-28T12:57:53;10.67;;;5.87;;
68583;SDS011;55557;49.220;11.150;2023-12-28T13:00:22;10.20;;;6.23;;
68583;SDS011;55557;49.220;11.150;2023-12-28T13:02:51;13.83;;;6.70;;
68583;SDS011;55557;49.220;11.150;2023-12-28T13:05:18;13.83;;;7.37;;
68583;SDS011;55557;49.220;11.150;2023-12-28T13:07:44;14.53;;;8.17;;
68583;SDS011;55557;49.220;11.150;2023-12-28T13:10:10;17.50;;;8.03;;
68583;SDS011;55557;49.220;11.150;2023-12-28T13:12:36;10.03;;;6.50;;
68583;SDS011;55557;49.220;11.150;2023-12-28T13:15:02;7.60;;;4.80;;
68583;SDS011;55557;49.220;11.150;2023-12-28T13:17:28;14.27;;;6.37;;
68583;SDS011;55557;49.220;11.150;2023-12-28T13:19:54;11.53;;;6.27;;
68583;SDS011;55557;49.220;11.150;2023-12-28T13:22:20;17.70;;;8.27;;
68583;SDS011;55557;49.220;11.150;2023-12-28T13:24:46;18.97;;;9.03;;
68583;SDS011;55557;49.220;11.150;2023-12-28T13:27:12;19.77;;;9.57;;
68583;SDS011;55557;49.220;11.150;2023-12-28T13:29:39;22.33;;;11.53;;
68583;SDS011;55557;49.220;11.150;2023-12-28T13:32:05;18.67;;;10.13;;
68583;SDS011;55557;49.220;11.150;2023-12-28T13:34:31;15.63;;;8.37;;
68583;SDS011;55557;49.220;11.150;2023-12-28T13:36:58;16.33;;;5.53;;
68583;SDS011;55557;49.220;11.150;2023-12-28T13:39:26;13.47;;;5.63;;
68583;SDS011;55557;49.220;11.150;2023-12-28T13:41:53;10.23;;;5.87;;
68583;SDS011;55557;49.220;11.150;2023-12-28T13:44:19;9.17;;;4.70;;
68583;SDS011;55557;49.220;11.150;2023-12-28T13:46:45;8.30;;;5.53;;
68583;SDS011;55557;49.220;11.150;2023-12-28T13:49:11;8.33;;;5.83;;
68583;SDS011;55557;49.220;11.150;2023-12-28T13:51:37;9.27;;;6.00;;
68583;SDS011;55557;49.220;11.150;2023-12-28T13:54:03;6.60;;;4.23;;
68583;SDS011;55557;49.220;11.150;2023-12-28T13:56:29;7.30;;;4.97;;
68583;SDS011;55557;49.220;11.150;2023-12-28T13:58:55;11.07;;;6.60;;
68583;SDS011;55557;49.220;11.150;2023-12-28T14:01:21;9.93;;;5.87;;
68583;SDS011;55557;49.220;11.150;2023-12-28T14:03:47;12.07;;;7.10;;
68583;SDS011;55557;49.220;11.150;2023-12-28T14:06:16;8.87;;;5.00;;
68583;SDS011;55557;49.220;11.150;2023-12-28T14:08:42;11.37;;;4.57;;
68583;SDS011;55557;49.220;11.150;2023-12-28T14:11:08;7.93;;;4.37;;
68583;SDS011;55557;49.220;11.150;2023-12-28T14:13:34;6.60;;;3.73;;
68583;SDS011;55557;49.220;11.150;2023-12-28T14:16:01;4.80;;;3.20;;
68583;SDS011;55557;49.220;11.150;2023-12-28T14:18:27;4.30;;;3.50;;
68583;SDS011;55557;49.220;11.150;2023-12-28T14:20:53;4.77;;;3.10;;
68583;SDS011;55557;49.220;11.150;2023-12-28T14:23:20;5.43;;;2.83;;
68583;SDS011;55557;49.220;11.150;2023-12-28T14:25:46;3.50;;;2.80;;
68583;SDS011;55557;49.220;11.150;2023-12-28T14:28:18;4.47;;;2.00;;
68583;SDS011;55557;49.220;11.150;2023-12-28T14:31:03;5.23;;;2.20;;
68583;SDS011;55557;49.220;11.150;2023-12-28T14:33:29;3.97;;;2.20;;
68583;SDS011;55557;49.220;11.150;2023-12-28T14:35:56;2.17;;;1.90;;